createdAt,value
2023-02-11T00:01:19.975Z,72.34
2023-02-11T00:03:46.524Z,71.23
2023-02-11T00:06:13.102Z,70.41
2023-02-11T00:08:39.688Z,70.02
2023-02-11T00:11:06.314Z,70.21
2023-02-11T00:13:32.773Z,70.49
2023-02-11T00:15:59.564Z,70.00
2023-02-11T00:18:26.045Z,69.78
2023-02-11T00:20:52.498Z,70.05
2023-02-11T00:23:19.068Z,70.54
2023-02-11T00:25:45.701Z,70.96
2023-02-11T00:28:12.648Z,71.82
2023-02-11T00:30:40.405Z,72.03
2023-02-11T00:33:08.015Z,71.60
2023-02-11T00:35:37.242Z,72.32
2023-02-11T00:38:03.859Z,71.83
2023-02-11T00:40:31.148Z,71.75
2023-02-11T00:42:57.571Z,72.18
2023-02-11T00:45:24.355Z,72.50
2023-02-11T00:47:50.801Z,72.37
2023-02-11T00:50:17.262Z,72.45
2023-02-11T00:52:43.771Z,71.96
2023-02-11T00:55:10.266Z,71.88
2023-02-11T00:57:36.961Z,72.21
2023-02-11T01:00:05.592Z,72.85
2023-02-11T01:02:32.053Z,72.34
2023-02-11T01:05:00.104Z,72.22
2023-02-11T01:07:27.885Z,72.11
2023-02-11T01:09:54.881Z,72.78
2023-02-11T01:12:21.425Z,72.99
2023-02-11T01:14:48.227Z,72.60
2023-02-11T01:17:14.756Z,72.91
2023-02-11T01:19:41.563Z,72.62
2023-02-11T01:22:08.025Z,72.75
2023-02-11T01:24:34.491Z,71.74
2023-02-11T01:27:00.964Z,72.28
2023-02-11T01:29:27.412Z,72.29
2023-02-11T01:31:54.510Z,71.54
2023-02-11T01:34:20.990Z,71.95
2023-02-11T01:36:47.453Z,71.60
2023-02-11T01:39:13.906Z,71.88
2023-02-11T01:41:40.407Z,71.46
2023-02-11T01:44:27.749Z,71.45
2023-02-11T01:46:54.668Z,70.89
2023-02-11T01:49:30.360Z,70.61
2023-02-11T01:52:09.334Z,70.43
2023-02-11T01:55:01.310Z,70.86
2023-02-11T01:57:32.325Z,71.69
2023-02-11T02:00:14.328Z,71.77
2023-02-11T02:03:08.012Z,72.71
2023-02-11T02:05:57.533Z,73.13
2023-02-11T02:08:38.939Z,72.50
2023-02-11T02:11:05.672Z,72.66
2023-02-11T02:13:34.296Z,72.73
2023-02-11T02:16:03.941Z,72.63
2023-02-11T02:19:03.226Z,72.14
2023-02-11T02:21:55.359Z,72.71
2023-02-11T02:24:40.116Z,73.36
2023-02-11T02:27:23.893Z,73.16
2023-02-11T02:30:15.530Z,73.76
2023-02-11T02:32:54.105Z,72.70
2023-02-11T02:35:29.724Z,72.44
2023-02-11T02:38:03.005Z,72.21
2023-02-11T02:40:45.109Z,72.50
2023-02-11T02:43:13.711Z,72.32
2023-02-11T02:45:40.247Z,72.09
2023-02-11T02:48:06.947Z,72.11
2023-02-11T02:50:36.624Z,72.71
2023-02-11T02:53:40.800Z,72.47
2023-02-11T02:56:17.232Z,72.96
2023-02-11T02:58:57.387Z,73.30
2023-02-11T03:01:33.173Z,72.97
2023-02-11T03:04:20.933Z,73.20
2023-02-11T03:07:22.300Z,73.14
2023-02-11T03:09:58.322Z,73.93
2023-02-11T03:12:27.752Z,73.82
2023-02-11T03:14:54.484Z,73.77
2023-02-11T03:17:22.808Z,74.10
2023-02-11T03:19:51.073Z,73.49
2023-02-11T03:22:24.311Z,73.57
2023-02-11T03:24:51.139Z,73.27
2023-02-11T03:27:30.146Z,73.02
2023-02-11T03:30:09.690Z,73.34
2023-02-11T03:32:49.775Z,72.57
2023-02-11T03:35:41.304Z,72.50
2023-02-11T03:38:15.825Z,71.78
2023-02-11T03:40:45.564Z,72.21
2023-02-11T03:43:18.108Z,72.05
2023-02-11T03:45:47.165Z,71.91
2023-02-11T03:48:13.630Z,72.60
2023-02-11T03:50:42.140Z,72.46
2023-02-11T03:53:10.271Z,71.83
2023-02-11T03:55:40.656Z,72.62
2023-02-11T03:58:08.279Z,73.19
2023-02-11T04:00:39.508Z,74.30
2023-02-11T04:03:06.963Z,74.37
2023-02-11T04:05:33.539Z,74.27
2023-02-11T04:08:00.009Z,73.57
2023-02-11T04:10:26.537Z,73.30
2023-02-11T04:12:53.102Z,73.14
2023-02-11T04:15:19.915Z,73.88
2023-02-11T04:17:46.370Z,73.63
2023-02-11T04:20:13.368Z,73.78
2023-02-11T04:22:39.871Z,73.83
2023-02-11T04:25:07.215Z,74.23
2023-02-11T04:27:33.886Z,74.17
2023-02-11T04:30:00.415Z,74.16
2023-02-11T04:32:26.885Z,74.53
2023-02-11T04:34:54.805Z,74.85
2023-02-11T04:37:21.448Z,74.66
2023-02-11T04:39:48.007Z,73.99
2023-02-11T04:42:14.504Z,74.79
2023-02-11T04:44:40.993Z,74.46
2023-02-11T04:47:07.455Z,74.56
2023-02-11T04:49:33.907Z,73.79
2023-02-11T04:52:00.352Z,74.84
2023-02-11T04:54:26.826Z,75.05
2023-02-11T04:56:53.349Z,74.88
2023-02-11T04:59:19.800Z,73.76
2023-02-11T05:01:46.286Z,74.30
2023-02-11T05:04:12.829Z,74.87
2023-02-11T05:06:39.837Z,73.80
2023-02-11T05:09:06.599Z,74.32
2023-02-11T05:11:33.189Z,74.10
2023-02-11T05:13:59.735Z,73.12
2023-02-11T05:16:26.206Z,73.42
2023-02-11T05:18:53.709Z,73.41
2023-02-11T05:21:20.439Z,73.09
2023-02-11T05:23:47.330Z,73.12
2023-02-11T05:26:14.298Z,72.19
2023-02-11T05:28:41.028Z,72.76
2023-02-11T05:31:08.182Z,72.65
2023-02-11T05:33:34.709Z,73.23
2023-02-11T05:36:07.002Z,73.09
2023-02-11T05:38:34.052Z,72.76
2023-02-11T05:41:01.217Z,70.40
2023-02-11T05:43:28.107Z,71.69
2023-02-11T05:45:54.911Z,71.24
2023-02-11T05:48:21.450Z,73.46
2023-02-11T05:50:47.907Z,73.88
2023-02-11T05:53:14.404Z,74.72
2023-02-11T05:55:40.979Z,75.45
2023-02-11T05:58:07.966Z,76.16
2023-02-11T06:00:35.116Z,76.54
2023-02-11T06:03:01.690Z,76.31
2023-02-11T06:05:28.206Z,75.46
2023-02-11T06:07:54.660Z,76.32
2023-02-11T06:10:21.517Z,75.89
2023-02-11T06:12:48.431Z,75.36
2023-02-11T06:15:14.910Z,75.78
2023-02-11T06:17:41.351Z,75.98
2023-02-11T06:20:10.048Z,75.28
2023-02-11T06:22:36.602Z,76.02
2023-02-11T06:25:03.307Z,75.32
2023-02-11T06:27:29.962Z,75.81
2023-02-11T06:29:56.452Z,75.05
2023-02-11T06:32:43.335Z,74.67
2023-02-11T06:35:11.954Z,75.10
2023-02-11T06:37:39.370Z,74.74
2023-02-11T06:40:06.322Z,75.06
2023-02-11T06:42:32.867Z,74.59
2023-02-11T06:44:59.336Z,74.63
2023-02-11T06:47:25.872Z,73.92
2023-02-11T06:49:52.329Z,74.14
2023-02-11T06:52:18.847Z,74.71
2023-02-11T06:54:45.282Z,74.55
2023-02-11T06:57:11.766Z,74.11
2023-02-11T06:59:38.223Z,73.86
2023-02-11T07:02:05.020Z,74.68
2023-02-11T07:04:31.536Z,74.03
2023-02-11T07:06:57.989Z,74.88
2023-02-11T07:09:24.439Z,74.85
2023-02-11T07:11:50.893Z,75.23
2023-02-11T07:14:17.450Z,75.11
2023-02-11T07:16:44.089Z,75.30
2023-02-11T07:19:10.833Z,74.85
2023-02-11T07:21:37.387Z,75.30
2023-02-11T07:24:10.789Z,75.08
2023-02-11T07:26:37.704Z,75.12
2023-02-11T07:29:04.204Z,75.24
2023-02-11T07:31:30.904Z,75.73
2023-02-11T07:34:00.212Z,75.60
2023-02-11T07:36:28.068Z,75.55
2023-02-11T07:38:54.553Z,74.86
2023-02-11T07:41:23.162Z,73.94
2023-02-11T07:43:50.241Z,74.32
2023-02-11T07:46:18.589Z,74.70
2023-02-11T07:48:45.123Z,74.60
2023-02-11T07:51:23.798Z,74.10
2023-02-11T07:53:51.862Z,73.79
2023-02-11T07:56:20.837Z,73.18
2023-02-11T07:58:47.652Z,72.51
2023-02-11T08:01:17.467Z,72.79
2023-02-11T08:03:44.399Z,72.27
2023-02-11T08:06:14.541Z,70.70
2023-02-11T08:08:41.849Z,71.17
2023-02-11T08:11:11.033Z,71.43
2023-02-11T08:13:37.567Z,71.43
2023-02-11T08:16:05.135Z,71.65
2023-02-11T08:18:33.049Z,71.36
2023-02-11T08:21:07.237Z,72.13
2023-02-11T08:23:36.075Z,71.99
2023-02-11T08:26:10.122Z,71.81
2023-02-11T08:28:38.915Z,72.16
2023-02-11T08:31:18.087Z,71.84
2023-02-11T08:33:44.958Z,72.08
2023-02-11T08:36:14.781Z,71.51
2023-02-11T08:38:41.914Z,72.02
2023-02-11T08:41:09.186Z,71.17
2023-02-11T08:43:36.778Z,71.81
2023-02-11T08:46:03.508Z,71.12
2023-02-11T08:48:30.181Z,70.63
2023-02-11T08:50:57.546Z,70.50
2023-02-11T08:53:24.918Z,69.63
2023-02-11T08:55:53.981Z,67.92
2023-02-11T08:58:21.875Z,68.41
2023-02-11T09:00:49.817Z,67.41
2023-02-11T09:03:16.825Z,67.73
2023-02-11T09:05:49.933Z,67.82
2023-02-11T09:08:16.958Z,67.71
2023-02-11T09:10:43.496Z,68.96
2023-02-11T09:13:10.258Z,69.68
2023-02-11T09:15:37.088Z,69.37
2023-02-11T09:18:04.884Z,69.34
2023-02-11T09:20:31.983Z,70.00
2023-02-11T09:22:59.216Z,69.78
2023-02-11T09:25:26.063Z,69.25
2023-02-11T09:27:53.730Z,68.33
2023-02-11T09:30:20.333Z,67.47
2023-02-11T09:32:46.797Z,67.29
2023-02-11T09:35:13.243Z,68.13
2023-02-11T09:37:39.690Z,67.84
2023-02-11T09:40:06.644Z,68.39
2023-02-11T09:42:42.089Z,69.52
2023-02-11T09:45:19.699Z,70.27
2023-02-11T09:47:54.301Z,70.11
2023-02-11T09:50:36.559Z,70.36
2023-02-11T09:53:24.083Z,70.60
2023-02-11T09:55:59.736Z,70.42
2023-02-11T09:58:33.153Z,69.84
2023-02-11T10:01:25.153Z,70.00
2023-02-11T10:03:54.499Z,69.01
2023-02-11T10:06:32.939Z,69.66
2023-02-11T10:09:26.316Z,68.58
2023-02-11T10:12:10.849Z,68.50
2023-02-11T10:15:00.783Z,67.08
2023-02-11T10:17:58.116Z,66.99
2023-02-11T10:20:36.549Z,66.36
2023-02-11T10:23:13.469Z,67.17
2023-02-11T10:25:48.081Z,65.89
2023-02-11T10:28:20.640Z,63.91
2023-02-11T10:31:01.545Z,61.90
2023-02-11T10:33:33.049Z,60.88
2023-02-11T10:35:59.978Z,61.18
2023-02-11T10:38:27.820Z,60.85
2023-02-11T10:40:54.309Z,59.31
2023-02-11T10:43:26.764Z,59.32
2023-02-11T10:45:55.890Z,59.48
2023-02-11T10:48:44.041Z,57.73
2023-02-11T10:51:12.264Z,58.06
2023-02-11T10:53:39.869Z,57.27
2023-02-11T10:56:10.501Z,56.40
2023-02-11T10:58:45.304Z,55.31
2023-02-11T11:01:23.895Z,56.00
2023-02-11T11:03:52.691Z,55.14
2023-02-11T11:06:31.301Z,54.70
2023-02-11T11:08:58.173Z,54.58
2023-02-11T11:11:26.213Z,53.24
2023-02-11T11:13:52.688Z,53.67
2023-02-11T11:16:22.114Z,53.96
2023-02-11T11:18:51.130Z,53.51
2023-02-11T11:21:26.430Z,51.83
2023-02-11T11:24:01.201Z,53.12
2023-02-11T11:26:43.848Z,51.85
2023-02-11T11:29:17.793Z,51.46
2023-02-11T11:31:55.190Z,49.48
2023-02-11T11:34:40.567Z,50.28
2023-02-11T11:37:11.734Z,49.09
2023-02-11T11:39:39.781Z,48.40
2023-02-11T11:42:25.825Z,46.90
2023-02-11T11:45:23.111Z,47.79
2023-02-11T11:48:01.419Z,45.88
2023-02-11T11:50:36.810Z,46.69
2023-02-11T11:53:20.813Z,46.59
2023-02-11T11:56:00.992Z,45.56
2023-02-11T11:58:29.863Z,45.88
2023-02-11T12:01:05.583Z,45.95
2023-02-11T12:04:09.393Z,45.49
2023-02-11T12:06:54.634Z,44.97
2023-02-11T12:09:39.492Z,44.03
2023-02-11T12:12:40.164Z,45.12
2023-02-11T12:15:29.723Z,44.13
2023-02-11T12:18:25.567Z,43.91
2023-02-11T12:21:03.192Z,41.46
2023-02-11T12:23:47.946Z,42.29
2023-02-11T12:26:32.912Z,42.54
2023-02-11T12:29:20.433Z,42.61
2023-02-11T12:32:14.890Z,42.48
2023-02-11T12:35:07.009Z,41.69
2023-02-11T12:37:48.698Z,40.28
2023-02-11T12:40:43.826Z,40.61
2023-02-11T12:43:23.503Z,40.32
2023-02-11T12:46:09.837Z,39.86
2023-02-11T12:48:45.500Z,41.26
2023-02-11T12:51:34.373Z,39.35
2023-02-11T12:54:14.180Z,39.71
2023-02-11T12:56:52.820Z,39.00
2023-02-11T12:59:43.795Z,40.41
2023-02-11T13:02:41.619Z,33.93
2023-02-11T13:05:22.500Z,33.58
2023-02-11T13:07:51.906Z,33.18
2023-02-11T13:10:24.513Z,30.79
2023-02-11T13:13:11.312Z,27.84
2023-02-11T13:15:37.732Z,23.03
2023-02-11T13:18:22.274Z,25.11
2023-02-11T13:21:04.576Z,25.10
2023-02-11T13:23:42.990Z,22.96
2023-02-11T13:26:41.127Z,23.31
2023-02-11T13:29:25.351Z,23.32
2023-02-11T13:31:55.629Z,22.39
2023-02-11T13:34:45.152Z,24.31
2023-02-11T13:37:22.490Z,22.82
2023-02-11T13:40:03.023Z,22.26
2023-02-11T13:42:30.995Z,23.04
2023-02-11T13:44:58.039Z,24.36
2023-02-11T13:47:31.280Z,23.06
2023-02-11T13:49:59.356Z,27.31
2023-02-11T13:52:29.589Z,27.23
2023-02-11T13:55:02.915Z,26.93
2023-02-11T13:57:34.924Z,26.75
2023-02-11T14:00:26.595Z,25.34
2023-02-11T14:03:30.198Z,26.63
2023-02-11T14:06:27.431Z,25.50
2023-02-11T14:09:09.466Z,26.45
2023-02-11T14:11:55.326Z,27.90
2023-02-11T14:14:33.512Z,29.10
2023-02-11T14:17:00.224Z,26.06
2023-02-11T14:19:34.939Z,24.28
2023-02-11T14:22:03.161Z,23.76
2023-02-11T14:24:30.947Z,24.48
2023-02-11T14:27:15.379Z,24.91
2023-02-11T14:30:20.523Z,25.14
2023-02-11T14:33:11.772Z,23.94
2023-02-11T14:35:48.577Z,23.88
2023-02-11T14:38:51.841Z,24.36
2023-02-11T14:41:27.518Z,23.36
2023-02-11T14:43:59.397Z,29.59
2023-02-11T14:46:27.811Z,27.88
2023-02-11T14:48:57.566Z,29.63
2023-02-11T14:51:44.120Z,26.80
2023-02-11T14:54:19.569Z,25.94
2023-02-11T14:56:46.795Z,22.57
2023-02-11T14:59:19.744Z,19.66
2023-02-11T15:01:50.268Z,20.04
2023-02-11T15:04:31.925Z,19.90
2023-02-11T15:07:04.906Z,20.62
2023-02-11T15:09:38.205Z,22.56
2023-02-11T15:12:05.101Z,24.15
2023-02-11T15:14:33.797Z,26.56
2023-02-11T15:17:07.975Z,28.41
2023-02-11T15:19:38.439Z,29.68
2023-02-11T15:22:07.345Z,30.35
2023-02-11T15:24:35.654Z,31.73
2023-02-11T15:27:08.078Z,31.44
2023-02-11T15:29:37.754Z,31.09
2023-02-11T15:32:13.560Z,32.44
2023-02-11T15:34:40.524Z,32.51
2023-02-11T15:37:07.371Z,33.80
2023-02-11T15:39:37.909Z,34.75
2023-02-11T15:42:17.487Z,35.50
2023-02-11T15:44:44.090Z,36.25
2023-02-11T15:47:18.929Z,36.78
2023-02-11T15:49:46.876Z,37.82
2023-02-11T15:52:25.621Z,38.54
2023-02-11T15:54:53.650Z,39.17
2023-02-11T15:57:22.914Z,39.72
2023-02-11T15:59:52.838Z,39.94
2023-02-11T16:02:25.332Z,40.74
2023-02-11T16:04:57.471Z,41.42
2023-02-11T16:07:40.604Z,41.63
2023-02-11T16:10:24.229Z,41.86
2023-02-11T16:13:06.564Z,42.61
2023-02-11T16:15:50.604Z,43.93
2023-02-11T16:18:34.035Z,45.35
2023-02-11T16:21:04.905Z,45.85
2023-02-11T16:23:35.352Z,47.13
2023-02-11T16:26:08.733Z,47.68
2023-02-11T16:28:37.309Z,48.53
2023-02-11T16:31:04.903Z,49.84
2023-02-11T16:33:31.557Z,50.34
2023-02-11T16:36:01.990Z,50.54
2023-02-11T16:38:29.381Z,50.97
2023-02-11T16:40:55.861Z,50.75
2023-02-11T16:43:22.320Z,51.15
2023-02-11T16:45:48.992Z,51.09
2023-02-11T16:48:19.176Z,51.69
2023-02-11T16:50:51.360Z,52.00
2023-02-11T16:53:23.443Z,51.84
2023-02-11T16:55:51.224Z,53.02
2023-02-11T16:58:18.101Z,53.57
2023-02-11T17:00:47.012Z,54.22
2023-02-11T17:03:28.194Z,54.25
2023-02-11T17:05:56.262Z,54.77
2023-02-11T17:08:22.786Z,54.88
2023-02-11T17:10:49.687Z,54.94
2023-02-11T17:13:16.429Z,55.01
2023-02-11T17:15:42.918Z,55.28
2023-02-11T17:18:13.318Z,56.40
2023-02-11T17:20:40.404Z,56.76
2023-02-11T17:23:07.238Z,57.36
2023-02-11T17:25:33.728Z,57.69
2023-02-11T17:28:00.241Z,58.73
2023-02-11T17:30:26.713Z,58.33
2023-02-11T17:32:53.174Z,58.79
2023-02-11T17:35:19.614Z,58.98
2023-02-11T17:37:46.109Z,58.97
2023-02-11T17:40:13.795Z,59.37
2023-02-11T17:42:40.328Z,59.42
2023-02-11T17:45:08.524Z,59.91
2023-02-11T17:47:35.485Z,59.17
2023-02-11T17:50:03.115Z,59.06
2023-02-11T17:52:29.668Z,58.12
2023-02-11T17:54:56.298Z,58.85
2023-02-11T17:57:22.757Z,59.00
2023-02-11T17:59:49.223Z,59.52
2023-02-11T18:02:15.724Z,59.76
2023-02-11T18:04:42.273Z,60.46
2023-02-11T18:07:08.789Z,60.64
2023-02-11T18:09:40.376Z,61.33
2023-02-11T18:12:08.018Z,61.78
2023-02-11T18:14:34.648Z,61.50
2023-02-11T18:17:01.255Z,62.38
2023-02-11T18:19:30.549Z,61.98
2023-02-11T18:22:00.792Z,62.12
2023-02-11T18:24:27.524Z,62.32
2023-02-11T18:26:53.953Z,63.10
2023-02-11T18:29:20.480Z,62.06
2023-02-11T18:31:47.015Z,63.01
2023-02-11T18:34:13.542Z,63.04
2023-02-11T18:36:40.007Z,62.09
2023-02-11T18:39:06.517Z,62.36
2023-02-11T18:41:33.175Z,62.17
2023-02-11T18:44:02.783Z,63.22
2023-02-11T18:46:29.727Z,63.41
2023-02-11T18:48:56.447Z,63.93
2023-02-11T18:51:23.619Z,63.72
2023-02-11T18:53:50.147Z,63.10
2023-02-11T18:56:20.642Z,63.59
2023-02-11T18:58:47.772Z,63.38
2023-02-11T19:01:27.312Z,63.27
2023-02-11T19:03:56.293Z,63.42
2023-02-11T19:06:33.307Z,64.87
2023-02-11T19:09:01.967Z,63.86
2023-02-11T19:11:48.979Z,63.79
2023-02-11T19:14:18.236Z,64.59
2023-02-11T19:16:46.332Z,64.55
2023-02-11T19:19:13.773Z,64.94
2023-02-11T19:21:43.450Z,64.96
2023-02-11T19:24:10.931Z,65.37
2023-02-11T19:26:37.716Z,64.81
2023-02-11T19:29:05.991Z,65.26
2023-02-11T19:31:32.832Z,65.46
2023-02-11T19:34:00.476Z,65.50
2023-02-11T19:36:27.266Z,66.01
2023-02-11T19:38:53.997Z,66.25
2023-02-11T19:41:22.458Z,67.12
2023-02-11T19:43:52.800Z,66.39
2023-02-11T19:46:20.987Z,66.15
2023-02-11T19:48:48.860Z,66.00
2023-02-11T19:51:15.931Z,66.12
2023-02-11T19:53:44.515Z,66.66
2023-02-11T19:56:13.290Z,66.19
2023-02-11T19:58:40.205Z,66.06
2023-02-11T20:01:09.664Z,66.48
2023-02-11T20:03:36.720Z,67.26
2023-02-11T20:06:13.080Z,67.50
2023-02-11T20:08:39.967Z,67.80
2023-02-11T20:11:12.436Z,67.33
2023-02-11T20:13:39.720Z,67.80
2023-02-11T20:16:09.323Z,67.92
2023-02-11T20:18:36.651Z,67.66
2023-02-11T20:21:18.889Z,67.75
2023-02-11T20:23:46.594Z,67.72
2023-02-11T20:26:27.805Z,67.51
2023-02-11T20:28:55.499Z,67.32
2023-02-11T20:31:23.098Z,67.72
2023-02-11T20:33:49.945Z,67.84
2023-02-11T20:36:20.308Z,68.03
2023-02-11T20:38:46.845Z,68.28
2023-02-11T20:41:20.168Z,68.67
2023-02-11T20:43:49.537Z,68.73
2023-02-11T20:46:17.360Z,68.18
2023-02-11T20:48:43.882Z,68.83
2023-02-11T20:51:12.781Z,69.04
2023-02-11T20:53:41.647Z,69.10
2023-02-11T20:56:11.269Z,68.75
2023-02-11T20:58:38.975Z,68.36
2023-02-11T21:01:16.614Z,68.76
2023-02-11T21:03:53.749Z,69.08
2023-02-11T21:06:21.660Z,69.67
2023-02-11T21:08:48.128Z,69.60
2023-02-11T21:11:15.065Z,69.63
2023-02-11T21:13:42.650Z,69.94
2023-02-11T21:16:13.482Z,69.90
2023-02-11T21:18:40.008Z,69.67
2023-02-11T21:21:07.106Z,69.87
2023-02-11T21:23:33.664Z,69.03
2023-02-11T21:26:00.141Z,69.53
2023-02-11T21:28:26.718Z,68.90
2023-02-11T21:30:54.747Z,68.54
2023-02-11T21:33:22.409Z,67.72
2023-02-11T21:35:49.005Z,68.10
2023-02-11T21:38:16.098Z,68.65
2023-02-11T21:40:42.597Z,68.86
2023-02-11T21:43:09.056Z,68.86
2023-02-11T21:45:35.632Z,69.62
2023-02-11T21:48:02.157Z,69.51
2023-02-11T21:50:28.600Z,69.16
2023-02-11T21:52:55.246Z,69.48
2023-02-11T21:55:21.705Z,69.57
2023-02-11T21:57:48.166Z,70.17
2023-02-11T22:00:15.298Z,70.29
2023-02-11T22:02:42.384Z,70.69
2023-02-11T22:05:08.959Z,71.01
2023-02-11T22:07:36.447Z,71.60
2023-02-11T22:10:03.966Z,71.64
2023-02-11T22:12:30.724Z,71.62
2023-02-11T22:14:57.196Z,71.64
2023-02-11T22:17:23.745Z,70.79
2023-02-11T22:19:50.191Z,71.08
2023-02-11T22:22:18.324Z,70.13
2023-02-11T22:24:48.433Z,68.60
2023-02-11T22:27:19.897Z,69.35
2023-02-11T22:29:46.767Z,69.88
2023-02-11T22:32:13.439Z,69.79
2023-02-11T22:34:40.086Z,70.39
2023-02-11T22:37:07.499Z,70.27
2023-02-11T22:39:34.155Z,69.73
2023-02-11T22:42:00.656Z,70.20
2023-02-11T22:44:27.172Z,70.78
2023-02-11T22:46:54.139Z,70.37
2023-02-11T22:49:21.609Z,70.93
2023-02-11T22:51:48.810Z,71.16
2023-02-11T22:54:17.761Z,71.63
2023-02-11T22:56:45.212Z,71.83
2023-02-11T22:59:14.401Z,71.49
2023-02-11T23:01:42.099Z,70.75
2023-02-11T23:04:12.087Z,71.07
2023-02-11T23:06:38.938Z,71.66
2023-02-11T23:09:10.092Z,71.77
2023-02-11T23:11:36.610Z,71.63
2023-02-11T23:14:03.860Z,72.11
2023-02-11T23:16:33.592Z,71.58
2023-02-11T23:19:02.153Z,72.13
2023-02-11T23:21:31.217Z,72.22
2023-02-11T23:24:04.208Z,73.13
2023-02-11T23:26:31.101Z,72.93
2023-02-11T23:28:59.198Z,73.55
2023-02-11T23:31:37.437Z,73.61
2023-02-11T23:34:04.467Z,72.88
2023-02-11T23:36:31.538Z,72.89
2023-02-11T23:38:58.679Z,73.08
2023-02-11T23:41:25.727Z,73.27
2023-02-11T23:43:54.639Z,73.01
2023-02-11T23:46:24.371Z,73.55
2023-02-11T23:48:51.661Z,73.84
2023-02-11T23:51:19.207Z,73.48
2023-02-11T23:53:46.231Z,72.69
2023-02-11T23:56:25.788Z,72.47
2023-02-11T23:58:54.676Z,72.31
